If you wish to contribute or participate in the discussions about articles you are invited to join SKYbrary as a registered user

 Actions

Marsa Alam International Airport

From SKYbrary Wiki

HEMA
Airport
ICAO: HEMA – IATA: RMF
Summary
Name Marsa Alam International Airport
Region Europe
Territory Egypt EG.gif
Location Marsa Alam, Al Bahr al Ahmar
Serving Marsa Alam
Elevation 76.505 m
251 ft
251 ft76.505 m
Type medium airport
Coordinates 25° 33' 25.60" N, 34° 35' 1.36" E
Runways
Designator Length Width Surface ROPS
15/33 3000 m9,842.52 ft
45 m147.638 ft
ASP yes/yes


METAR
Observation HEMA 181200Z 35015KT CAVOK 33/18 Q1011 NOSIG
Station MARSA ALAM INTL
Date/Time 18 October 2019 12:00:00
Wind direction 350°
Wind speed 15 kts
Lowest cloud amount clouds and visibility OK
Temperature 33°C
Dew point 18°C
Humidity 41%
QNH 1011 hPa
Weather condition n/a

Maps

Terrain

Loading map...

Airport Layout

Loading map...


Accidents & Serious Incidents at or in vicinity of HEMA

None on SKYbrary